Time;durP1;ratioP1;P1;durP2;ratioP2;P2;SDS_P1;SDS_P2;PMS_P1;PMS_P2;Temp;Humidity;BMP_temperature;BMP_pressure;BME280_temperature;BME280_humidity;BME280_pressure;Samples;Min_cycle;Max_cycle;Signal;HPM_P1;HPM_P2
2021/03/10 00:01:37;;;;;;;46.05;24.18;;;;;;;-6.21;65.52;101501.44;1802303;79;21513;-68
2021/03/10 00:04:06;;;;;;;40.92;22.67;;;;;;;-6.23;65.68;101498.13;1800742;79;21714;-69
2021/03/10 00:06:33;;;;;;;42.62;23.15;;;;;;;-6.26;65.87;101497.89;1799336;77;21202;-68
2021/03/10 00:09:01;;;;;;;49.73;25.05;;;;;;;-6.28;65.95;101500.30;1798518;79;21171;-69
2021/03/10 00:11:29;;;;;;;50.23;25.17;;;;;;;-6.32;66.08;101504.06;1792655;79;21238;-68
2021/03/10 00:13:57;;;;;;;49.10;24.67;;;;;;;-6.35;66.24;101502.53;1790493;79;21222;-68
2021/03/10 00:16:25;;;;;;;53.78;26.73;;;;;;;-6.40;66.41;101497.71;1798626;77;21367;-68
2021/03/10 00:18:53;;;;;;;59.65;29.25;;;;;;;-6.40;66.57;101502.09;1793426;79;21769;-70
2021/03/10 00:21:21;;;;;;;63.68;31.17;;;;;;;-6.42;66.77;101496.18;1800150;79;21550;-68
2021/03/10 00:23:48;;;;;;;76.25;33.15;;;;;;;-6.42;66.94;101497.48;1792710;79;21115;-67
2021/03/10 00:26:16;;;;;;;64.60;30.68;;;;;;;-6.45;67.03;101491.23;1788995;77;21269;-68
2021/03/10 00:28:44;;;;;;;60.88;29.77;;;;;;;-6.47;67.07;101493.96;1800727;79;21180;-68
2021/03/10 00:31:12;;;;;;;68.30;33.08;;;;;;;-6.49;67.09;101488.53;1794016;79;21143;-66
2021/03/10 00:33:39;;;;;;;69.65;31.40;;;;;;;-6.52;67.11;101485.70;1800879;79;21170;-67
2021/03/10 00:36:09;;;;;;;68.12;30.57;;;;;;;-6.53;67.18;101492.33;1781816;79;21175;-68
2021/03/10 00:38:39;;;;;;;66.87;31.25;;;;;;;-6.55;67.26;101489.84;1795126;79;21134;-67
2021/03/10 00:41:07;;;;;;;69.77;32.25;;;;;;;-6.56;67.30;101489.49;1793843;79;21365;-67
2021/03/10 00:43:36;;;;;;;68.62;30.25;;;;;;;-6.57;67.32;101484.44;1805096;79;21119;-68
2021/03/10 00:46:04;;;;;;;52.27;26.30;;;;;;;-6.60;67.36;101486.80;1793301;77;21278;-68
2021/03/10 00:48:32;;;;;;;51.77;25.88;;;;;;;-6.62;67.41;101489.98;1798185;79;21507;-68
2021/03/10 00:51:01;;;;;;;51.80;24.40;;;;;;;-6.72;67.53;101486.46;1800894;77;21222;-67
2021/03/10 00:53:29;;;;;;;51.48;24.57;;;;;;;-6.76;67.66;101495.45;1798608;79;21354;-69
2021/03/10 00:55:56;;;;;;;47.50;22.85;;;;;;;-6.81;67.72;101489.78;1800697;77;22231;-68
2021/03/10 00:58:24;;;;;;;42.95;21.75;;;;;;;-6.85;67.76;101495.22;1798671;79;21171;-70
2021/03/10 01:00:52;;;;;;;40.25;21.62;;;;;;;-6.87;67.81;101495.83;1801936;79;21222;-69
2021/03/10 01:03:20;;;;;;;38.48;20.70;;;;;;;-6.91;67.86;101490.98;1792953;79;21234;-70
2021/03/10 01:05:49;;;;;;;37.45;19.65;;;;;;;-6.93;67.93;101492.41;1795354;78;21371;-69
2021/03/10 01:08:16;;;;;;;34.00;18.25;;;;;;;-6.94;68.00;101488.17;1797254;77;21253;-68
2021/03/10 01:10:46;;;;;;;37.67;19.45;;;;;;;-6.95;68.02;101493.47;1792029;79;21585;-68
2021/03/10 01:13:14;;;;;;;37.48;19.50;;;;;;;-6.98;68.01;101488.03;1792734;79;21088;-68
2021/03/10 01:15:42;;;;;;;39.65;21.30;;;;;;;-6.98;67.99;101490.63;1801818;79;21107;-69
2021/03/10 01:18:10;;;;;;;42.10;21.17;;;;;;;-6.99;67.94;101486.87;1800591;79;21444;-68
2021/03/10 01:20:38;;;;;;;44.58;21.73;;;;;;;-6.99;67.90;101491.59;1793517;77;21170;-67
2021/03/10 01:23:05;;;;;;;42.15;21.02;;;;;;;-7.00;67.85;101487.34;1793611;79;21175;-68
2021/03/10 01:25:34;;;;;;;39.65;20.48;;;;;;;-7.01;67.83;101488.27;1795382;79;21167;-67
2021/03/10 01:28:02;;;;;;;41.20;21.02;;;;;;;-7.02;67.75;101487.11;1795005;77;21317;-67
2021/03/10 01:30:30;;;;;;;40.98;21.45;;;;;;;-7.05;67.74;101484.75;1791199;79;21240;-67
2021/03/10 01:32:59;;;;;;;36.33;19.02;;;;;;;-7.06;67.68;101481.80;1791938;79;21068;-68
2021/03/10 01:35:27;;;;;;;44.95;20.82;;;;;;;-7.09;67.64;101481.56;1782767;79;21266;-67
2021/03/10 01:37:55;;;;;;;38.17;19.07;;;;;;;-7.15;67.63;101483.34;1803104;77;21215;-68
2021/03/10 01:40:24;;;;;;;42.30;21.00;;;;;;;-7.19;67.64;101487.13;1802494;79;21170;-68
2021/03/10 01:42:53;;;;;;;43.25;21.15;;;;;;;-7.25;67.75;101489.70;1787979;79;21310;-68
2021/03/10 01:45:22;;;;;;;40.23;21.15;;;;;;;-7.26;67.78;101489.84;1791987;79;21226;-68
2021/03/10 01:47:50;;;;;;;42.15;21.23;;;;;;;-7.35;67.79;101491.36;1785714;77;21190;-67
2021/03/10 01:50:20;;;;;;;42.55;20.70;;;;;;;-7.46;67.99;101492.19;1798375;79;21203;-67
2021/03/10 01:52:48;;;;;;;45.92;21.85;;;;;;;-7.48;68.18;101488.88;1778470;79;21203;-68
2021/03/10 01:55:16;;;;;;;46.00;23.35;;;;;;;-7.49;68.30;101492.42;1791041;79;21446;-69
2021/03/10 01:57:45;;;;;;;45.65;23.20;;;;;;;-7.55;68.41;101490.28;1801111;79;21218;-69
2021/03/10 02:00:14;;;;;;;43.33;24.12;;;;;;;-7.67;68.54;101496.39;1798298;79;21144;-69
2021/03/10 02:02:43;;;;;;;50.00;25.05;;;;;;;-7.84;68.75;101501.07;1789860;77;21630;-69
2021/03/10 02:05:15;;;;;;;45.88;24.57;;;;;;;-8.02;69.00;101498.56;1799300;79;21166;-67
2021/03/10 02:08:33;;;;;;;44.45;23.10;;;;;;;-8.11;69.27;101500.05;1797262;79;22246;-69
2021/03/10 02:11:39;;;;;;;45.17;23.47;;;;;;;-8.18;69.42;101504.52;1804194;79;21163;-69
2021/03/10 02:14:25;;;;;;;45.20;23.27;;;;;;;-8.32;69.65;101505.05;1798179;79;21219;-67
2021/03/10 02:16:58;;;;;;;43.95;23.15;;;;;;;-8.39;69.87;101506.47;1790654;79;21206;-70
2021/03/10 02:19:31;;;;;;;47.67;24.05;;;;;;;-8.42;70.04;101505.83;1765767;79;21590;-67
2021/03/10 02:22:46;;;;;;;48.27;24.13;;;;;;;-8.38;70.20;101506.81;1830527;77;22715;-68
2021/03/10 02:25:45;;;;;;;44.90;23.15;;;;;;;-8.46;70.31;101509.11;1827101;75;21183;-67
2021/03/10 02:28:13;;;;;;;40.38;22.55;;;;;;;-8.51;70.52;101504.74;1789615;77;21377;-67
2021/03/10 02:30:44;;;;;;;47.03;22.70;;;;;;;-8.56;70.71;101510.23;1844736;76;21632;-67
2021/03/10 02:33:18;;;;;;;41.80;21.65;;;;;;;-8.63;70.82;101503.02;1852110;77;22179;-67
2021/03/10 02:35:53;;;;;;;37.48;20.45;;;;;;;-8.69;70.96;101502.98;1820723;77;21187;-68
2021/03/10 02:38:23;;;;;;;36.85;19.70;;;;;;;-8.70;71.11;101500.04;1819813;75;21571;-68
2021/03/10 02:40:53;;;;;;;38.55;19.95;;;;;;;-8.71;71.21;101503.58;1812910;77;21366;-67
2021/03/10 02:43:21;;;;;;;35.78;19.73;;;;;;;-8.75;71.35;101499.55;1822314;77;21207;-68
2021/03/10 02:45:54;;;;;;;39.08;19.70;;;;;;;-8.78;71.47;101502.36;1806157;77;21210;-68
2021/03/10 02:48:23;;;;;;;39.15;20.80;;;;;;;-8.81;71.56;101503.40;1842177;75;21187;-69
2021/03/10 02:50:51;;;;;;;39.48;21.80;;;;;;;-8.78;71.71;101507.06;1804174;77;21741;-68
2021/03/10 02:53:19;;;;;;;41.50;21.60;;;;;;;-8.73;71.74;101508.02;1797224;77;21627;-68
2021/03/10 02:55:46;;;;;;;38.70;20.27;;;;;;;-8.66;71.74;101504.53;1833455;77;21086;-68
2021/03/10 02:58:14;;;;;;;40.12;22.02;;;;;;;-8.65;71.69;101504.87;1826950;77;21206;-67
2021/03/10 03:00:43;;;;;;;44.15;22.48;;;;;;;-8.74;71.72;101498.14;1845054;77;21200;-68
2021/03/10 03:03:11;;;;;;;45.67;23.50;;;;;;;-8.79;71.85;101496.33;1820836;78;21192;-68
2021/03/10 03:05:40;;;;;;;49.20;25.52;;;;;;;-8.74;71.93;101501.20;1817516;77;22246;-67
2021/03/10 03:08:07;;;;;;;51.77;25.92;;;;;;;-8.77;71.96;101494.47;1802293;77;21156;-67
2021/03/10 03:10:39;;;;;;;50.10;25.60;;;;;;;-8.78;72.03;101501.06;1817406;76;21211;-68
2021/03/10 03:13:16;;;;;;;49.17;24.53;;;;;;;-8.69;72.13;101498.27;1790901;79;22478;-66
2021/03/10 03:15:50;;;;;;;55.45;25.88;;;;;;;-8.71;72.08;101500.16;1781415;79;21187;-67
2021/03/10 03:18:18;;;;;;;49.40;26.20;;;;;;;-8.70;72.06;101503.10;1756905;79;21337;-66
2021/03/10 03:20:46;;;;;;;56.23;27.65;;;;;;;-8.67;72.06;101502.41;1789255;77;21191;-68
2021/03/10 03:23:14;;;;;;;53.52;27.22;;;;;;;-8.68;72.02;101505.13;1798186;77;21199;-68
2021/03/10 03:25:43;;;;;;;56.55;29.77;;;;;;;-8.70;72.06;101505.69;1807449;79;21195;-67
2021/03/10 03:28:15;;;;;;;58.48;28.25;;;;;;;-8.69;72.07;101503.45;1781144;79;21190;-67
2021/03/10 03:30:43;;;;;;;61.53;30.75;;;;;;;-8.64;72.07;101506.56;1794472;77;21174;-67
2021/03/10 03:33:21;;;;;;;59.42;29.02;;;;;;;-8.63;72.03;101502.55;1792378;77;21204;-67
2021/03/10 03:35:52;;;;;;;61.75;29.65;;;;;;;-8.56;71.98;101512.00;1780007;80;21185;-66
2021/03/10 03:38:25;;;;;;;56.02;27.95;;;;;;;-8.55;71.89;101503.31;1772609;79;28631;-67
2021/03/10 03:40:53;;;;;;;55.45;27.50;;;;;;;-8.51;71.82;101509.45;1776552;79;21188;-68
2021/03/10 03:43:26;;;;;;;69.47;33.00;;;;;;;-8.49;71.76;101509.33;1803237;77;21468;-67
2021/03/10 03:45:54;;;;;;;55.43;28.60;;;;;;;-8.45;71.70;101511.26;1802238;79;21179;-69
2021/03/10 03:48:23;;;;;;;52.33;27.67;;;;;;;-8.42;71.62;101514.45;1775837;78;21249;-68
2021/03/10 03:50:51;;;;;;;63.10;29.75;;;;;;;-8.40;71.51;101511.27;1789639;77;21162;-66
2021/03/10 03:53:19;;;;;;;58.92;29.50;;;;;;;-8.39;71.44;101514.23;1770510;79;21184;-68
2021/03/10 03:55:47;;;;;;;53.17;28.52;;;;;;;-8.37;71.34;101514.08;1763983;79;21375;-69
2021/03/10 03:58:15;;;;;;;49.83;26.10;;;;;;;-8.36;71.23;101513.13;1752112;80;21132;-68
2021/03/10 04:00:43;;;;;;;52.08;26.48;;;;;;;-8.34;71.13;101517.27;1753548;79;21177;-68
2021/03/10 04:03:11;;;;;;;47.83;25.97;;;;;;;-8.33;71.08;101515.50;1796731;78;21185;-69
2021/03/10 04:05:39;;;;;;;51.05;25.90;;;;;;;-8.33;71.01;101521.52;1786813;78;21152;-69
2021/03/10 04:08:09;;;;;;;48.60;26.40;;;;;;;-8.36;70.95;101510.07;1775833;79;21353;-68
2021/03/10 04:10:40;;;;;;;52.95;26.57;;;;;;;-8.37;70.85;101512.31;1765343;79;21199;-69
2021/03/10 04:13:08;;;;;;;51.75;26.10;;;;;;;-8.38;70.79;101507.28;1781324;78;21219;-68
2021/03/10 04:15:37;;;;;;;50.80;26.55;;;;;;;-8.38;70.70;101513.77;1791410;78;21195;-69
2021/03/10 04:18:06;;;;;;;49.10;25.65;;;;;;;-8.38;70.64;101515.88;1778385;78;21175;-68
2021/03/10 04:20:34;;;;;;;49.55;26.25;;;;;;;-8.38;70.56;101518.47;1766044;79;21389;-69
2021/03/10 04:23:02;;;;;;;49.85;26.00;;;;;;;-8.37;70.48;101520.08;1778482;78;21140;-70
2021/03/10 04:25:30;;;;;;;51.77;25.95;;;;;;;-8.41;70.39;101517.87;1778480;78;21195;-69
2021/03/10 04:27:57;;;;;;;53.87;27.32;;;;;;;-8.51;70.39;101522.88;1785438;79;21212;-68
2021/03/10 04:30:25;;;;;;;47.90;24.75;;;;;;;-8.60;70.42;101523.53;1785272;78;21151;-67
2021/03/10 04:32:53;;;;;;;45.52;23.12;;;;;;;-8.68;70.56;101525.84;1786549;78;21357;-67
2021/03/10 04:35:22;;;;;;;45.33;22.95;;;;;;;-8.69;70.65;101528.87;1747855;79;21164;-69
2021/03/10 04:37:50;;;;;;;45.00;22.20;;;;;;;-8.68;70.70;101526.67;1780182;79;21212;-68
2021/03/10 04:40:18;;;;;;;46.13;23.83;;;;;;;-8.64;70.71;101522.92;1774005;78;21646;-69
2021/03/10 04:42:46;;;;;;;41.58;21.52;;;;;;;-8.65;70.70;101524.30;1781453;78;21556;-66
2021/03/10 04:45:16;;;;;;;41.30;22.32;;;;;;;-8.67;70.79;101524.91;1776142;79;22288;-68
2021/03/10 04:47:44;;;;;;;36.80;20.40;;;;;;;-8.66;70.86;101525.25;1781434;79;21624;-69
2021/03/10 04:50:15;;;;;;;46.77;22.22;;;;;;;-8.64;70.87;101528.57;1780812;78;21170;-69
2021/03/10 04:52:43;;;;;;;36.05;18.70;;;;;;;-8.65;71.04;101529.48;1805389;77;21182;-67
2021/03/10 04:55:12;;;;;;;38.02;19.92;;;;;;;-8.60;71.17;101527.41;1778481;79;21170;-67
2021/03/10 04:57:40;;;;;;;41.10;21.33;;;;;;;-8.54;71.25;101530.86;1783683;79;21448;-68
2021/03/10 05:00:10;;;;;;;33.40;17.87;;;;;;;-8.48;71.41;101530.44;1808820;77;21188;-68
2021/03/10 05:02:38;;;;;;;33.98;17.65;;;;;;;-8.38;71.50;101536.61;1768978;79;21172;-68
2021/03/10 05:05:08;;;;;;;33.60;18.42;;;;;;;-8.28;71.54;101537.56;1800812;77;21195;-68
2021/03/10 05:07:37;;;;;;;30.68;16.57;;;;;;;-8.17;71.54;101532.08;1774872;79;21121;-68
2021/03/10 05:10:28;;;;;;;32.78;17.37;;;;;;;-8.05;71.57;101535.08;1779778;79;21655;-69
2021/03/10 05:12:58;;;;;;;30.95;17.37;;;;;;;-7.91;71.61;101538.77;1750987;80;21224;-68
2021/03/10 05:15:25;;;;;;;30.15;16.50;;;;;;;-7.73;71.59;101538.34;1778347;79;21179;-69
2021/03/10 05:17:55;;;;;;;28.90;15.95;;;;;;;-7.60;71.58;101538.64;1777482;79;21183;-69
2021/03/10 05:20:23;;;;;;;30.68;16.65;;;;;;;-7.45;71.57;101537.12;1741882;80;21073;-67
2021/03/10 05:22:51;;;;;;;33.28;16.90;;;;;;;-7.32;71.58;101534.77;1769062;79;21434;-69
2021/03/10 05:25:18;;;;;;;30.62;16.25;;;;;;;-7.14;71.54;101536.90;1777229;79;21156;-69
2021/03/10 05:27:46;;;;;;;30.80;16.60;;;;;;;-7.02;71.51;101542.45;1774502;78;21246;-69
2021/03/10 05:30:16;;;;;;;29.65;16.20;;;;;;;-6.90;71.52;101544.59;1776157;80;21223;-68
2021/03/10 05:32:45;;;;;;;30.65;16.20;;;;;;;-6.78;71.46;101546.21;1765660;79;21173;-71
2021/03/10 05:35:13;;;;;;;29.05;16.57;;;;;;;-6.66;71.42;101549.16;1766949;79;21238;-69
2021/03/10 05:37:41;;;;;;;28.32;15.80;;;;;;;-6.50;71.38;101551.38;1782539;77;21218;-69
2021/03/10 05:40:09;;;;;;;29.45;14.98;;;;;;;-6.32;71.36;101556.88;1764954;79;21286;-69
2021/03/10 05:42:42;;;;;;;28.70;15.32;;;;;;;-6.19;71.32;101552.34;1730992;80;21234;-70
2021/03/10 05:45:11;;;;;;;24.32;13.60;;;;;;;-6.03;71.21;101548.52;1746112;80;21817;-68
2021/03/10 05:47:39;;;;;;;22.70;12.93;;;;;;;-5.85;71.07;101552.20;1766219;78;21814;-69
2021/03/10 05:50:10;;;;;;;25.72;13.93;;;;;;;-5.70;70.96;101554.02;1734958;82;21675;-70
2021/03/10 05:52:39;;;;;;;22.25;13.30;;;;;;;-5.53;70.77;101559.94;1774465;79;21643;-67
2021/03/10 05:55:08;;;;;;;21.12;12.13;;;;;;;-5.36;70.61;101560.31;1765067;79;21216;-69
2021/03/10 05:57:37;;;;;;;19.80;11.15;;;;;;;-5.20;70.42;101560.67;1732005;80;21219;-68
2021/03/10 06:00:11;;;;;;;19.90;11.55;;;;;;;-5.05;70.19;101559.88;1772640;78;22388;-68
2021/03/10 06:02:40;;;;;;;18.05;10.63;;;;;;;-4.91;70.00;101560.00;1740570;80;21662;-68
2021/03/10 06:05:25;;;;;;;18.62;10.10;;;;;;;-4.77;69.70;101568.30;1744264;80;21255;-69
2021/03/10 06:08:06;;;;;;;15.28;9.28;;;;;;;-4.67;69.44;101567.03;1763422;79;21193;-68
2021/03/10 06:10:39;;;;;;;16.15;9.65;;;;;;;-4.61;69.00;101570.38;1726767;81;21623;-68
2021/03/10 06:13:25;;;;;;;17.25;9.40;;;;;;;-4.57;68.73;101576.18;1767342;79;21637;-69
2021/03/10 06:15:56;;;;;;;15.65;9.63;;;;;;;-4.51;68.56;101574.31;1737987;80;22295;-68
2021/03/10 06:18:35;;;;;;;17.62;9.83;;;;;;;-4.40;68.40;101578.63;1761443;79;21209;-68
2021/03/10 06:21:13;;;;;;;14.60;8.38;;;;;;;-4.34;68.17;101571.08;1787834;79;21153;-69
2021/03/10 06:24:02;;;;;;;16.00;8.88;;;;;;;-4.21;67.90;101574.75;1775299;78;21214;-67
2021/03/10 06:26:33;;;;;;;13.10;7.60;;;;;;;-4.03;67.72;101577.02;1746354;80;21375;-67
2021/03/10 06:29:03;;;;;;;13.78;8.23;;;;;;;-3.84;66.99;101579.30;1762223;79;21231;-67
2021/03/10 06:31:34;;;;;;;13.22;7.92;;;;;;;-3.73;66.22;101573.92;1791940;79;21224;-68
2021/03/10 06:34:09;;;;;;;13.13;7.33;;;;;;;-3.61;65.85;101572.82;1779929;79;21195;-69
2021/03/10 06:36:42;;;;;;;14.30;7.65;;;;;;;-3.43;65.46;101569.48;1764535;79;21199;-68
2021/03/10 06:39:11;;;;;;;;;;;;;;;-3.23;64.98;101575.00;1780319;79;21357;-68
2021/03/10 06:41:42;;;;;;;12.05;6.35;;;;;;;-3.07;64.52;101569.19;1760135;81;20638;-69
2021/03/10 06:44:21;;;;;;;13.60;7.22;;;;;;;-3.00;63.69;101572.05;1763001;80;22249;-71
2021/03/10 06:46:56;;;;;;;11.28;6.30;;;;;;;-2.98;63.08;101571.44;1750283;80;21230;-68
2021/03/10 06:49:28;;;;;;;9.20;5.62;;;;;;;-2.94;62.55;101569.69;1735392;80;22240;-70
2021/03/10 06:52:04;;;;;;;11.68;6.37;;;;;;;-2.90;61.95;101571.53;1765738;80;21449;-68
2021/03/10 06:54:31;;;;;;;8.70;4.92;;;;;;;-2.79;61.61;101570.55;1723809;81;21223;-69
2021/03/10 06:57:08;;;;;;;8.33;4.03;;;;;;;-2.65;60.71;101566.95;1747671;80;21143;-69
2021/03/10 06:59:51;;;;;;;7.47;4.15;;;;;;;-2.56;60.35;101566.57;1751472;80;21285;-69
2021/03/10 07:02:25;;;;;;;8.23;4.30;;;;;;;-2.45;59.44;101566.84;1771321;79;21166;-69
2021/03/10 07:04:55;;;;;;;6.72;3.40;;;;;;;-2.29;59.05;101570.13;1746549;79;22788;-70
2021/03/10 07:07:24;;;;;;;6.80;3.95;;;;;;;-2.12;58.07;101567.52;1746991;80;21202;-68
2021/03/10 07:09:52;;;;;;;6.72;4.10;;;;;;;-2.00;57.43;101575.16;1774951;79;21269;-69
2021/03/10 07:12:26;;;;;;;9.00;4.37;;;;;;;-1.87;57.03;101569.06;1762415;79;21144;-70
2021/03/10 07:14:54;;;;;;;7.22;4.05;;;;;;;-1.71;56.58;101568.36;1766589;79;21203;-69
2021/03/10 07:17:23;;;;;;;6.25;3.30;;;;;;;-1.38;55.79;101575.15;1766265;80;21385;-70
2021/03/10 07:19:51;;;;;;;6.67;3.37;;;;;;;-1.38;55.79;101575.15;1783149;79;21279;-70
2021/03/10 07:22:39;;;;;;;5.80;3.17;;;;;;;-1.27;54.93;101571.80;1763409;79;21171;-68
2021/03/10 07:25:12;;;;;;;4.50;2.50;;;;;;;-1.20;53.86;101570.70;1778758;79;21198;-69
2021/03/10 07:28:00;;;;;;;5.17;3.12;;;;;;;-1.16;53.00;101557.61;1776996;80;21662;-69
2021/03/10 07:30:45;;;;;;;4.50;2.40;;;;;;;-1.10;52.50;101557.48;1779314;79;21377;-70
2021/03/10 07:33:19;;;;;;;4.78;2.60;;;;;;;-1.02;51.82;101558.36;1796985;79;21190;-69
2021/03/10 07:36:02;;;;;;;6.92;2.95;;;;;;;-0.95;51.17;101556.75;1764294;79;21171;-71
2021/03/10 07:38:38;;;;;;;6.67;3.00;;;;;;;-0.87;51.03;101563.01;1744269;80;21204;-70
2021/03/10 07:41:11;;;;;;;5.15;2.65;;;;;;;-0.81;50.71;101557.95;1763438;79;21186;-70
2021/03/10 07:43:47;;;;;;;5.70;3.00;;;;;;;-0.75;49.79;101556.02;1761270;79;21214;-69
2021/03/10 07:46:29;;;;;;;5.50;2.80;;;;;;;-0.70;49.79;101558.16;1779035;79;21713;-70
2021/03/10 07:49:29;;;;;;;5.80;2.83;;;;;;;-0.57;49.13;101553.28;1807634;79;23753;-71
2021/03/10 07:52:13;;;;;;;4.60;2.40;;;;;;;-0.59;48.92;101551.33;1760472;80;21304;-71
2021/03/10 07:54:41;;;;;;;;;;;;;;;-0.52;48.69;101554.12;1773759;80;21454;-70
2021/03/10 07:57:15;;;;;;;5.50;2.37;;;;;;;-0.45;48.04;101550.38;1772132;80;21261;-72
2021/03/10 08:00:02;;;;;;;4.80;2.58;;;;;;;-0.39;47.76;101550.56;1750105;81;21391;-70
2021/03/10 08:02:44;;;;;;;4.30;2.33;;;;;;;-0.28;47.25;101550.73;1741777;80;21219;-71
2021/03/10 08:05:23;;;;;;;4.37;2.40;;;;;;;-0.26;46.22;101544.84;1741446;80;21154;-70
2021/03/10 08:08:12;;;;;;;4.72;2.45;;;;;;;-0.21;46.23;101553.54;1741430;81;22280;-70
2021/03/10 08:10:41;;;;;;;6.50;2.52;;;;;;;-0.13;46.13;101553.08;1753183;80;21272;-70
2021/03/10 08:13:17;;;;;;;6.15;2.58;;;;;;;-0.07;45.00;101551.58;1734318;80;21604;-70
2021/03/10 08:15:45;;;;;;;5.85;2.52;;;;;;;-0.13;44.86;101548.28;1739526;81;21556;-70
2021/03/10 08:18:19;;;;;;;4.03;1.80;;;;;;;-0.14;44.40;101548.78;1746684;81;21162;-70
2021/03/10 08:20:49;;;;;;;4.00;2.10;;;;;;;-0.08;44.04;101548.14;1723790;81;21445;-70
2021/03/10 08:23:17;;;;;;;6.30;2.42;;;;;;;-0.12;43.69;101536.82;1736433;81;21228;-70
2021/03/10 08:25:52;;;;;;;7.62;2.50;;;;;;;-0.09;43.54;101544.38;1704737;81;21277;-72
2021/03/10 08:28:20;;;;;;;6.53;2.70;;;;;;;-0.01;43.60;101548.31;1746302;81;21476;-70
2021/03/10 08:30:48;;;;;;;5.03;2.30;;;;;;;0.13;43.17;101546.37;1739481;81;21163;-69
2021/03/10 08:33:17;;;;;;;5.05;2.75;;;;;;;0.22;42.61;101540.10;1746608;81;21388;-70
2021/03/10 08:35:49;;;;;;;7.80;2.67;;;;;;;0.32;42.46;101541.25;1756752;81;21180;-70
2021/03/10 08:38:17;;;;;;;5.17;2.95;;;;;;;0.42;41.77;101535.82;1751229;81;21211;-72
2021/03/10 08:40:45;;;;;;;6.42;3.02;;;;;;;0.36;41.69;101536.48;1737422;81;21152;-70
2021/03/10 08:43:20;;;;;;;4.78;2.50;;;;;;;0.35;41.66;101540.92;1730955;82;21209;-70
2021/03/10 08:45:48;;;;;;;5.75;3.52;;;;;;;0.42;41.77;101537.14;1759859;81;21608;-69
2021/03/10 08:48:17;;;;;;;6.67;3.02;;;;;;;0.44;41.01;101545.69;1748500;81;21188;-70
2021/03/10 08:50:47;;;;;;;5.03;3.00;;;;;;;0.45;40.91;101542.88;1749613;81;21212;-70
2021/03/10 08:53:16;;;;;;;5.97;3.10;;;;;;;0.50;41.03;101531.89;1763238;80;21215;-71
2021/03/10 08:55:47;;;;;;;5.90;2.72;;;;;;;0.61;41.13;101535.47;1751837;81;21655;-70
2021/03/10 08:58:18;;;;;;;4.37;2.17;;;;;;;0.76;40.86;101540.03;1742332;81;21267;-70
2021/03/10 09:00:48;;;;;;;6.62;2.90;;;;;;;0.87;39.54;101527.86;1736387;81;21248;-69
2021/03/10 09:03:18;;;;;;;5.90;2.92;;;;;;;0.76;39.50;101528.20;1736109;81;21188;-71
2021/03/10 09:05:52;;;;;;;4.50;2.50;;;;;;;0.75;39.50;101527.88;1750481;80;21228;-69
2021/03/10 09:08:23;;;;;;;5.78;3.02;;;;;;;0.80;39.64;101521.64;1713544;81;21482;-69
2021/03/10 09:10:55;;;;;;;7.08;3.40;;;;;;;0.89;39.51;101524.58;1730536;81;22452;-70
2021/03/10 09:13:28;;;;;;;6.65;3.05;;;;;;;0.87;39.53;101518.15;1736124;81;21237;-70
2021/03/10 09:15:57;;;;;;;4.92;2.80;;;;;;;0.90;39.96;101517.00;1753771;81;21165;-68
2021/03/10 09:18:34;;;;;;;4.85;2.42;;;;;;;1.04;39.58;101520.72;1717542;80;21205;-69
2021/03/10 09:21:04;;;;;;;6.10;2.65;;;;;;;1.13;39.07;101519.70;1730155;81;21192;-70
2021/03/10 09:23:35;;;;;;;6.05;2.83;;;;;;;1.12;37.99;101524.16;1746427;81;21395;-70
2021/03/10 09:26:06;;;;;;;10.55;3.05;;;;;;;1.07;38.06;101518.57;1730904;81;21244;-72
2021/03/10 09:28:40;;;;;;;6.80;3.02;;;;;;;1.13;38.45;101515.77;1745033;81;21202;-70
2021/03/10 09:31:21;;;;;;;8.43;3.53;;;;;;;1.30;38.90;101509.92;1834613;77;23114;-69
2021/03/10 09:34:00;;;;;;;4.55;3.20;;;;;;;1.39;38.84;101513.66;1798727;78;21149;-69
2021/03/10 09:36:29;;;;;;;7.42;2.92;;;;;;;1.51;38.32;101511.94;1778174;79;21362;-70
2021/03/10 09:38:59;;;;;;;6.83;2.92;;;;;;;1.56;37.79;101510.43;1805325;77;21186;-70
2021/03/10 09:41:30;;;;;;;6.20;2.55;;;;;;;1.59;37.82;101507.95;1796958;79;21670;-69
2021/03/10 09:44:08;;;;;;;8.70;2.80;;;;;;;1.66;37.40;101516.79;1792420;79;21218;-70
2021/03/10 09:46:43;;;;;;;6.40;2.90;;;;;;;1.70;35.99;101511.98;1810929;79;21291;-70
2021/03/10 09:49:13;;;;;;;6.90;2.95;;;;;;;1.64;36.21;101515.63;1792565;78;21261;-69
2021/03/10 09:51:49;;;;;;;4.47;2.55;;;;;;;1.69;36.43;101515.63;1796728;79;21151;-69
2021/03/10 09:54:19;;;;;;;4.20;2.47;;;;;;;1.75;35.52;101518.88;1799644;79;21301;-68
2021/03/10 09:56:51;;;;;;;4.80;2.52;;;;;;;1.77;36.20;101514.24;1815462;77;21136;-69
2021/03/10 09:59:32;;;;;;;6.23;2.70;;;;;;;1.95;34.86;101508.19;1834214;77;23312;-69
2021/03/10 10:02:02;;;;;;;5.72;2.67;;;;;;;1.84;35.72;101516.02;1818134;77;21183;-68
2021/03/10 10:04:31;;;;;;;8.90;2.75;;;;;;;1.83;35.74;101517.50;1803171;78;22354;-69
2021/03/10 10:07:04;;;;;;;6.03;2.92;;;;;;;1.85;35.36;101520.78;1796227;78;21128;-68
2021/03/10 10:09:35;;;;;;;8.05;3.12;;;;;;;1.71;34.92;101506.56;1803286;78;21214;-68
2021/03/10 10:12:08;;;;;;;5.83;2.92;;;;;;;1.56;35.30;101508.30;1817727;78;21200;-68
2021/03/10 10:15:06;;;;;;;7.63;2.90;;;;;;;1.64;35.18;101506.41;1806562;77;23407;-69
2021/03/10 10:17:35;;;;;;;5.80;2.70;;;;;;;1.66;35.21;101510.70;1769390;80;21149;-70
2021/03/10 10:20:07;;;;;;;4.60;2.50;;;;;;;1.77;35.19;101505.02;1758057;80;22568;-68
2021/03/10 10:22:35;;;;;;;6.20;2.40;;;;;;;1.88;35.05;101500.68;1777585;80;21116;-68
2021/03/10 10:25:06;;;;;;;4.28;2.40;;;;;;;1.88;34.32;101496.73;1777821;80;21183;-69
2021/03/10 10:27:35;;;;;;;7.08;3.00;;;;;;;1.81;34.03;101492.66;1781177;79;21113;-69
2021/03/10 10:30:06;;;;;;;7.10;2.72;;;;;;;1.69;33.74;101498.52;1769711;80;21214;-68
2021/03/10 10:32:35;;;;;;;;;;;;;;;1.67;34.43;101496.03;1780311;80;21588;-69
2021/03/10 10:35:07;;;;;;;9.48;3.05;;;;;;;1.72;32.91;101490.26;1764742;79;20284;-70
2021/03/10 10:37:35;;;;;;;5.62;2.22;;;;;;;1.72;33.82;101493.70;1772900;80;21622;-69
2021/03/10 10:40:18;;;;;;;5.10;2.70;;;;;;;1.82;34.03;101488.20;1791132;78;21746;-70
2021/03/10 10:42:50;;;;;;;8.15;2.98;;;;;;;1.94;33.67;101482.85;1806342;79;21171;-68
2021/03/10 10:45:20;;;;;;;5.65;2.83;;;;;;;2.01;33.05;101479.83;1790695;79;22352;-71
2021/03/10 10:47:48;;;;;;;3.87;2.17;;;;;;;1.96;33.41;101476.89;1794672;79;21227;-69
2021/03/10 10:50:18;;;;;;;6.53;2.47;;;;;;;2.00;33.11;101475.53;1782891;79;21135;-70
2021/03/10 10:52:48;;;;;;;5.53;2.70;;;;;;;2.00;33.07;101478.67;1783195;79;21199;-69
2021/03/10 10:55:19;;;;;;;5.67;2.65;;;;;;;2.05;33.19;101474.52;1777354;79;21772;-69
2021/03/10 10:57:48;;;;;;;7.33;3.30;;;;;;;2.17;33.33;101478.02;1796628;79;21284;-69
2021/03/10 11:00:20;;;;;;;6.40;3.05;;;;;;;2.20;33.32;101481.11;1788676;79;21199;-71
2021/03/10 11:02:49;;;;;;;8.55;3.10;;;;;;;2.15;33.60;101472.94;1751174;81;21379;-70
2021/03/10 11:05:20;;;;;;;4.15;2.17;;;;;;;2.03;33.92;101470.41;1807902;79;21207;-70
2021/03/10 11:07:49;;;;;;;5.80;2.95;;;;;;;2.07;33.72;101466.41;1785031;80;21254;-70
2021/03/10 11:10:18;;;;;;;4.87;2.50;;;;;;;1.98;33.69;101467.00;1791050;79;21954;-68
2021/03/10 11:12:48;;;;;;;4.53;2.77;;;;;;;1.99;34.12;101467.31;1762452;80;21196;-69
2021/03/10 11:15:18;;;;;;;5.67;2.70;;;;;;;2.13;34.43;101458.30;1786366;79;21645;-70
2021/03/10 11:17:48;;;;;;;6.33;2.52;;;;;;;2.25;34.43;101460.83;1783524;79;21121;-71
2021/03/10 11:20:17;;;;;;;4.97;2.25;;;;;;;2.38;33.59;101461.02;1788350;78;21172;-69
2021/03/10 11:22:46;;;;;;;5.42;2.72;;;;;;;2.40;32.58;101454.23;1770154;80;21569;-72
2021/03/10 11:25:16;;;;;;;5.72;2.70;;;;;;;2.35;33.23;101461.38;1778590;79;22181;-71
2021/03/10 11:27:44;;;;;;;5.62;2.85;;;;;;;2.34;33.08;101457.12;1799475;79;21178;-71
2021/03/10 11:30:16;;;;;;;5.05;2.70;;;;;;;2.33;33.13;101457.59;1786211;78;21216;-72
2021/03/10 11:32:44;;;;;;;6.45;3.10;;;;;;;2.31;33.02;101450.89;1794192;79;21188;-71
2021/03/10 11:35:15;;;;;;;4.15;2.47;;;;;;;2.29;33.69;101453.69;1786180;79;21323;-70
2021/03/10 11:37:43;;;;;;;5.03;2.55;;;;;;;2.35;33.90;101454.29;1808944;79;21133;-70
2021/03/10 11:40:14;;;;;;;4.83;2.60;;;;;;;2.40;33.75;101454.23;1778373;80;21523;-70